sensor_id;sensor_type;location;lat;lon;timestamp;P1;durP1;ratioP1;P2;durP2;ratioP2
1446;SDS011;717;51.522;7.266;2022-12-18T00:00:12;12.83;;;7.60;;
1446;SDS011;717;51.522;7.266;2022-12-18T00:02:42;13.47;;;10.27;;
1446;SDS011;717;51.522;7.266;2022-12-18T00:05:11;11.93;;;7.60;;
1446;SDS011;717;51.522;7.266;2022-12-18T00:07:39;15.33;;;9.87;;
1446;SDS011;717;51.522;7.266;2022-12-18T00:10:08;14.37;;;7.83;;
1446;SDS011;717;51.522;7.266;2022-12-18T00:12:37;13.20;;;7.67;;
1446;SDS011;717;51.522;7.266;2022-12-18T00:15:06;10.10;;;7.73;;
1446;SDS011;717;51.522;7.266;2022-12-18T00:17:37;11.77;;;7.67;;
1446;SDS011;717;51.522;7.266;2022-12-18T00:20:07;12.17;;;7.93;;
1446;SDS011;717;51.522;7.266;2022-12-18T00:22:36;13.43;;;7.93;;
1446;SDS011;717;51.522;7.266;2022-12-18T00:25:05;10.70;;;7.43;;
1446;SDS011;717;51.522;7.266;2022-12-18T00:27:34;9.97;;;6.80;;
1446;SDS011;717;51.522;7.266;2022-12-18T00:30:04;9.77;;;6.50;;
1446;SDS011;717;51.522;7.266;2022-12-18T00:32:33;10.20;;;5.97;;
1446;SDS011;717;51.522;7.266;2022-12-18T00:35:05;9.10;;;5.43;;
1446;SDS011;717;51.522;7.266;2022-12-18T00:37:34;9.90;;;5.90;;
1446;SDS011;717;51.522;7.266;2022-12-18T00:40:03;10.07;;;4.90;;
1446;SDS011;717;51.522;7.266;2022-12-18T00:42:33;10.37;;;5.77;;
1446;SDS011;717;51.522;7.266;2022-12-18T00:45:14;8.10;;;5.30;;
1446;SDS011;717;51.522;7.266;2022-12-18T00:47:43;8.40;;;5.00;;
1446;SDS011;717;51.522;7.266;2022-12-18T00:50:14;8.60;;;5.30;;
1446;SDS011;717;51.522;7.266;2022-12-18T00:52:43;10.30;;;7.17;;
1446;SDS011;717;51.522;7.266;2022-12-18T00:55:12;7.27;;;4.60;;
1446;SDS011;717;51.522;7.266;2022-12-18T00:57:41;8.97;;;5.67;;
1446;SDS011;717;51.522;7.266;2022-12-18T01:00:10;9.83;;;5.53;;
1446;SDS011;717;51.522;7.266;2022-12-18T01:02:42;9.27;;;5.70;;
1446;SDS011;717;51.522;7.266;2022-12-18T01:05:11;9.47;;;6.00;;
1446;SDS011;717;51.522;7.266;2022-12-18T01:07:43;9.90;;;6.13;;
1446;SDS011;717;51.522;7.266;2022-12-18T01:10:12;10.87;;;6.97;;
1446;SDS011;717;51.522;7.266;2022-12-18T01:12:41;11.50;;;7.17;;
1446;SDS011;717;51.522;7.266;2022-12-18T01:15:10;12.57;;;7.63;;
1446;SDS011;717;51.522;7.266;2022-12-18T01:17:41;11.17;;;7.30;;
1446;SDS011;717;51.522;7.266;2022-12-18T01:20:11;13.77;;;7.47;;
1446;SDS011;717;51.522;7.266;2022-12-18T01:22:43;12.83;;;7.00;;
1446;SDS011;717;51.522;7.266;2022-12-18T01:25:11;11.07;;;6.87;;
1446;SDS011;717;51.522;7.266;2022-12-18T01:27:40;11.50;;;7.07;;
1446;SDS011;717;51.522;7.266;2022-12-18T01:30:09;11.40;;;7.10;;
1446;SDS011;717;51.522;7.266;2022-12-18T01:32:38;11.80;;;7.20;;
1446;SDS011;717;51.522;7.266;2022-12-18T01:35:07;12.57;;;7.50;;
1446;SDS011;717;51.522;7.266;2022-12-18T01:37:39;12.07;;;8.80;;
1446;SDS011;717;51.522;7.266;2022-12-18T01:40:08;11.97;;;9.23;;
1446;SDS011;717;51.522;7.266;2022-12-18T01:42:37;15.07;;;7.67;;
1446;SDS011;717;51.522;7.266;2022-12-18T01:45:08;13.37;;;7.40;;
1446;SDS011;717;51.522;7.266;2022-12-18T01:47:51;10.10;;;6.47;;
1446;SDS011;717;51.522;7.266;2022-12-18T01:50:23;13.00;;;7.10;;
1446;SDS011;717;51.522;7.266;2022-12-18T01:52:58;9.07;;;5.93;;
1446;SDS011;717;51.522;7.266;2022-12-18T01:55:31;9.30;;;6.00;;
1446;SDS011;717;51.522;7.266;2022-12-18T01:58:04;9.30;;;5.60;;
1446;SDS011;717;51.522;7.266;2022-12-18T02:00:33;9.80;;;5.23;;
1446;SDS011;717;51.522;7.266;2022-12-18T02:03:02;9.03;;;5.50;;
1446;SDS011;717;51.522;7.266;2022-12-18T02:05:37;9.07;;;5.50;;
1446;SDS011;717;51.522;7.266;2022-12-18T02:08:16;8.57;;;5.37;;
1446;SDS011;717;51.522;7.266;2022-12-18T02:10:51;11.20;;;6.23;;
1446;SDS011;717;51.522;7.266;2022-12-18T02:13:32;10.57;;;6.00;;
1446;SDS011;717;51.522;7.266;2022-12-18T02:16:09;9.43;;;6.50;;
1446;SDS011;717;51.522;7.266;2022-12-18T02:18:47;9.07;;;6.37;;
1446;SDS011;717;51.522;7.266;2022-12-18T02:21:21;11.50;;;6.80;;
1446;SDS011;717;51.522;7.266;2022-12-18T02:24:04;9.13;;;6.10;;
1446;SDS011;717;51.522;7.266;2022-12-18T02:26:48;9.67;;;5.63;;
1446;SDS011;717;51.522;7.266;2022-12-18T02:29:20;9.53;;;6.30;;
1446;SDS011;717;51.522;7.266;2022-12-18T02:31:53;9.93;;;5.83;;
1446;SDS011;717;51.522;7.266;2022-12-18T02:34:25;9.73;;;6.50;;
1446;SDS011;717;51.522;7.266;2022-12-18T02:36:57;8.67;;;5.80;;
1446;SDS011;717;51.522;7.266;2022-12-18T02:39:28;10.70;;;5.63;;
1446;SDS011;717;51.522;7.266;2022-12-18T02:42:01;9.20;;;5.30;;
1446;SDS011;717;51.522;7.266;2022-12-18T02:44:33;10.13;;;5.73;;
1446;SDS011;717;51.522;7.266;2022-12-18T02:47:02;8.80;;;5.40;;
1446;SDS011;717;51.522;7.266;2022-12-18T02:49:33;9.63;;;5.93;;
1446;SDS011;717;51.522;7.266;2022-12-18T02:52:08;10.10;;;5.60;;
1446;SDS011;717;51.522;7.266;2022-12-18T02:54:52;8.00;;;4.90;;
1446;SDS011;717;51.522;7.266;2022-12-18T02:57:33;8.87;;;4.90;;
1446;SDS011;717;51.522;7.266;2022-12-18T03:00:07;7.70;;;5.27;;
1446;SDS011;717;51.522;7.266;2022-12-18T03:02:39;7.37;;;4.60;;
1446;SDS011;717;51.522;7.266;2022-12-18T03:05:15;8.83;;;6.07;;
1446;SDS011;717;51.522;7.266;2022-12-18T03:07:47;6.33;;;4.00;;
1446;SDS011;717;51.522;7.266;2022-12-18T03:10:21;7.50;;;4.50;;
1446;SDS011;717;51.522;7.266;2022-12-18T03:12:59;4.87;;;3.33;;
1446;SDS011;717;51.522;7.266;2022-12-18T03:15:31;7.27;;;4.23;;
1446;SDS011;717;51.522;7.266;2022-12-18T03:18:04;5.80;;;4.23;;
1446;SDS011;717;51.522;7.266;2022-12-18T03:20:35;7.53;;;4.17;;
1446;SDS011;717;51.522;7.266;2022-12-18T03:23:07;5.77;;;3.37;;
1446;SDS011;717;51.522;7.266;2022-12-18T03:25:39;6.63;;;4.13;;
1446;SDS011;717;51.522;7.266;2022-12-18T03:28:14;6.40;;;3.70;;
1446;SDS011;717;51.522;7.266;2022-12-18T03:30:47;6.93;;;3.83;;
1446;SDS011;717;51.522;7.266;2022-12-18T03:33:23;7.10;;;3.93;;
1446;SDS011;717;51.522;7.266;2022-12-18T03:35:55;6.33;;;3.63;;
1446;SDS011;717;51.522;7.266;2022-12-18T03:38:24;6.93;;;4.23;;
1446;SDS011;717;51.522;7.266;2022-12-18T03:40:55;7.97;;;3.97;;
1446;SDS011;717;51.522;7.266;2022-12-18T03:43:34;7.00;;;4.77;;
1446;SDS011;717;51.522;7.266;2022-12-18T03:46:11;7.30;;;3.97;;
1446;SDS011;717;51.522;7.266;2022-12-18T03:48:46;5.37;;;3.77;;
1446;SDS011;717;51.522;7.266;2022-12-18T03:51:21;7.17;;;4.00;;
1446;SDS011;717;51.522;7.266;2022-12-18T03:53:55;6.20;;;4.00;;
1446;SDS011;717;51.522;7.266;2022-12-18T03:56:28;6.67;;;4.37;;
1446;SDS011;717;51.522;7.266;2022-12-18T03:59:02;6.13;;;4.47;;
1446;SDS011;717;51.522;7.266;2022-12-18T04:01:34;7.10;;;4.00;;
1446;SDS011;717;51.522;7.266;2022-12-18T04:04:07;8.00;;;4.77;;
1446;SDS011;717;51.522;7.266;2022-12-18T04:06:38;7.67;;;4.47;;
1446;SDS011;717;51.522;7.266;2022-12-18T04:09:08;8.20;;;5.30;;
1446;SDS011;717;51.522;7.266;2022-12-18T04:11:37;8.23;;;5.30;;
1446;SDS011;717;51.522;7.266;2022-12-18T04:14:11;8.63;;;5.53;;
1446;SDS011;717;51.522;7.266;2022-12-18T04:16:40;9.50;;;5.80;;
1446;SDS011;717;51.522;7.266;2022-12-18T04:19:08;7.97;;;5.30;;
1446;SDS011;717;51.522;7.266;2022-12-18T04:21:37;9.63;;;6.00;;
1446;SDS011;717;51.522;7.266;2022-12-18T04:24:06;10.53;;;6.90;;
1446;SDS011;717;51.522;7.266;2022-12-18T04:26:34;9.90;;;6.53;;
1446;SDS011;717;51.522;7.266;2022-12-18T04:29:03;11.30;;;6.60;;
1446;SDS011;717;51.522;7.266;2022-12-18T04:31:35;11.30;;;6.90;;
1446;SDS011;717;51.522;7.266;2022-12-18T04:34:03;10.20;;;7.10;;
1446;SDS011;717;51.522;7.266;2022-12-18T04:36:32;10.43;;;6.90;;
1446;SDS011;717;51.522;7.266;2022-12-18T04:39:01;10.97;;;6.77;;
1446;SDS011;717;51.522;7.266;2022-12-18T04:41:29;11.13;;;6.43;;
1446;SDS011;717;51.522;7.266;2022-12-18T04:43:58;10.07;;;6.03;;
1446;SDS011;717;51.522;7.266;2022-12-18T04:46:27;10.17;;;6.87;;
1446;SDS011;717;51.522;7.266;2022-12-18T04:48:58;10.73;;;6.77;;
1446;SDS011;717;51.522;7.266;2022-12-18T04:51:27;9.20;;;6.10;;
1446;SDS011;717;51.522;7.266;2022-12-18T04:53:55;10.23;;;6.13;;
1446;SDS011;717;51.522;7.266;2022-12-18T04:56:24;9.00;;;5.37;;
1446;SDS011;717;51.522;7.266;2022-12-18T04:58:53;7.73;;;5.23;;
1446;SDS011;717;51.522;7.266;2022-12-18T05:01:21;10.33;;;5.97;;
1446;SDS011;717;51.522;7.266;2022-12-18T05:03:50;8.60;;;5.40;;
1446;SDS011;717;51.522;7.266;2022-12-18T05:06:22;7.33;;;5.03;;
1446;SDS011;717;51.522;7.266;2022-12-18T05:08:51;6.87;;;4.30;;
1446;SDS011;717;51.522;7.266;2022-12-18T05:11:19;7.10;;;4.50;;
1446;SDS011;717;51.522;7.266;2022-12-18T05:13:48;5.27;;;3.87;;
1446;SDS011;717;51.522;7.266;2022-12-18T05:16:17;8.00;;;4.30;;
1446;SDS011;717;51.522;7.266;2022-12-18T05:18:45;5.90;;;4.37;;
1446;SDS011;717;51.522;7.266;2022-12-18T05:21:14;4.10;;;2.90;;
1446;SDS011;717;51.522;7.266;2022-12-18T05:23:45;5.93;;;3.97;;
1446;SDS011;717;51.522;7.266;2022-12-18T05:26:15;6.13;;;3.70;;
1446;SDS011;717;51.522;7.266;2022-12-18T05:28:45;4.47;;;3.43;;
1446;SDS011;717;51.522;7.266;2022-12-18T05:31:14;5.67;;;3.53;;
1446;SDS011;717;51.522;7.266;2022-12-18T05:33:42;5.97;;;3.00;;
1446;SDS011;717;51.522;7.266;2022-12-18T05:36:11;3.63;;;2.50;;
1446;SDS011;717;51.522;7.266;2022-12-18T05:38:39;4.13;;;2.73;;
1446;SDS011;717;51.522;7.266;2022-12-18T05:41:11;3.90;;;2.60;;
1446;SDS011;717;51.522;7.266;2022-12-18T05:43:39;3.70;;;2.33;;
1446;SDS011;717;51.522;7.266;2022-12-18T05:46:10;3.40;;;2.37;;
1446;SDS011;717;51.522;7.266;2022-12-18T05:48:40;4.53;;;2.80;;
1446;SDS011;717;51.522;7.266;2022-12-18T05:51:10;4.90;;;3.27;;
1446;SDS011;717;51.522;7.266;2022-12-18T05:53:40;4.90;;;2.97;;
1446;SDS011;717;51.522;7.266;2022-12-18T05:56:13;4.20;;;2.83;;
1446;SDS011;717;51.522;7.266;2022-12-18T05:58:43;4.00;;;2.67;;
1446;SDS011;717;51.522;7.266;2022-12-18T06:01:13;5.37;;;2.60;;
1446;SDS011;717;51.522;7.266;2022-12-18T06:03:43;3.47;;;2.37;;
1446;SDS011;717;51.522;7.266;2022-12-18T06:06:12;3.77;;;2.60;;
1446;SDS011;717;51.522;7.266;2022-12-18T06:08:42;4.73;;;2.20;;
1446;SDS011;717;51.522;7.266;2022-12-18T06:11:15;4.83;;;2.67;;
1446;SDS011;717;51.522;7.266;2022-12-18T06:13:45;4.17;;;2.60;;
1446;SDS011;717;51.522;7.266;2022-12-18T06:16:14;4.90;;;2.80;;
1446;SDS011;717;51.522;7.266;2022-12-18T06:18:43;4.97;;;3.10;;
1446;SDS011;717;51.522;7.266;2022-12-18T06:21:11;5.33;;;3.90;;
1446;SDS011;717;51.522;7.266;2022-12-18T06:23:40;5.47;;;3.40;;
1446;SDS011;717;51.522;7.266;2022-12-18T06:26:09;4.93;;;3.43;;
1446;SDS011;717;51.522;7.266;2022-12-18T06:28:42;5.40;;;3.83;;
1446;SDS011;717;51.522;7.266;2022-12-18T06:31:10;5.00;;;3.60;;
1446;SDS011;717;51.522;7.266;2022-12-18T06:33:39;5.50;;;4.10;;
1446;SDS011;717;51.522;7.266;2022-12-18T06:36:09;5.77;;;3.83;;
1446;SDS011;717;51.522;7.266;2022-12-18T06:38:40;5.20;;;3.13;;
1446;SDS011;717;51.522;7.266;2022-12-18T06:41:11;5.43;;;3.40;;
1446;SDS011;717;51.522;7.266;2022-12-18T06:43:43;6.23;;;4.27;;
1446;SDS011;717;51.522;7.266;2022-12-18T06:46:12;5.47;;;3.47;;
1446;SDS011;717;51.522;7.266;2022-12-18T06:48:41;5.97;;;3.90;;
1446;SDS011;717;51.522;7.266;2022-12-18T06:51:10;5.33;;;3.47;;
1446;SDS011;717;51.522;7.266;2022-12-18T06:53:38;5.77;;;4.20;;
1446;SDS011;717;51.522;7.266;2022-12-18T06:56:07;5.90;;;3.80;;
1446;SDS011;717;51.522;7.266;2022-12-18T06:58:36;5.43;;;3.87;;
1446;SDS011;717;51.522;7.266;2022-12-18T07:01:08;4.67;;;3.47;;
1446;SDS011;717;51.522;7.266;2022-12-18T07:03:38;5.20;;;3.27;;
1446;SDS011;717;51.522;7.266;2022-12-18T07:06:11;4.23;;;3.03;;
1446;SDS011;717;51.522;7.266;2022-12-18T07:08:41;5.27;;;3.60;;
1446;SDS011;717;51.522;7.266;2022-12-18T07:11:10;6.17;;;3.40;;
1446;SDS011;717;51.522;7.266;2022-12-18T07:13:39;4.50;;;3.07;;
1446;SDS011;717;51.522;7.266;2022-12-18T07:16:11;4.57;;;3.17;;
1446;SDS011;717;51.522;7.266;2022-12-18T07:18:41;4.37;;;3.27;;
1446;SDS011;717;51.522;7.266;2022-12-18T07:21:10;5.80;;;3.90;;
1446;SDS011;717;51.522;7.266;2022-12-18T07:23:41;5.13;;;3.60;;
1446;SDS011;717;51.522;7.266;2022-12-18T07:26:13;5.97;;;4.27;;
1446;SDS011;717;51.522;7.266;2022-12-18T07:28:43;6.50;;;3.87;;
1446;SDS011;717;51.522;7.266;2022-12-18T07:31:15;6.73;;;3.60;;
1446;SDS011;717;51.522;7.266;2022-12-18T07:33:46;5.90;;;3.87;;
1446;SDS011;717;51.522;7.266;2022-12-18T07:36:14;4.37;;;3.20;;
1446;SDS011;717;51.522;7.266;2022-12-18T07:38:46;6.33;;;3.97;;
1446;SDS011;717;51.522;7.266;2022-12-18T07:41:15;7.20;;;3.90;;
1446;SDS011;717;51.522;7.266;2022-12-18T07:43:43;5.53;;;3.53;;
1446;SDS011;717;51.522;7.266;2022-12-18T07:46:15;5.70;;;3.77;;
1446;SDS011;717;51.522;7.266;2022-12-18T07:48:46;4.97;;;4.07;;
1446;SDS011;717;51.522;7.266;2022-12-18T07:51:14;6.53;;;3.97;;
1446;SDS011;717;51.522;7.266;2022-12-18T07:53:43;5.63;;;4.00;;
1446;SDS011;717;51.522;7.266;2022-12-18T07:56:12;7.37;;;4.07;;
1446;SDS011;717;51.522;7.266;2022-12-18T07:58:41;7.80;;;4.53;;
1446;SDS011;717;51.522;7.266;2022-12-18T08:01:14;7.50;;;4.60;;
1446;SDS011;717;51.522;7.266;2022-12-18T08:03:43;8.67;;;5.70;;
1446;SDS011;717;51.522;7.266;2022-12-18T08:06:12;10.87;;;6.37;;
1446;SDS011;717;51.522;7.266;2022-12-18T08:08:40;6.80;;;4.43;;
1446;SDS011;717;51.522;7.266;2022-12-18T08:11:09;8.63;;;5.07;;
1446;SDS011;717;51.522;7.266;2022-12-18T08:13:38;7.60;;;4.83;;
1446;SDS011;717;51.522;7.266;2022-12-18T08:16:07;7.70;;;4.57;;
1446;SDS011;717;51.522;7.266;2022-12-18T08:18:38;7.50;;;4.93;;
1446;SDS011;717;51.522;7.266;2022-12-18T08:21:08;7.67;;;4.80;;
1446;SDS011;717;51.522;7.266;2022-12-18T08:23:37;9.03;;;5.53;;
1446;SDS011;717;51.522;7.266;2022-12-18T08:26:06;8.37;;;5.37;;
1446;SDS011;717;51.522;7.266;2022-12-18T08:28:35;8.67;;;5.80;;
1446;SDS011;717;51.522;7.266;2022-12-18T08:31:04;9.27;;;5.57;;
1446;SDS011;717;51.522;7.266;2022-12-18T08:33:33;7.40;;;5.03;;
1446;SDS011;717;51.522;7.266;2022-12-18T08:36:07;6.93;;;4.47;;
1446;SDS011;717;51.522;7.266;2022-12-18T08:38:37;6.50;;;4.10;;
1446;SDS011;717;51.522;7.266;2022-12-18T08:41:07;7.77;;;4.20;;
1446;SDS011;717;51.522;7.266;2022-12-18T08:43:37;6.27;;;4.50;;
1446;SDS011;717;51.522;7.266;2022-12-18T08:46:18;5.80;;;4.60;;
1446;SDS011;717;51.522;7.266;2022-12-18T08:48:47;5.80;;;3.73;;
1446;SDS011;717;51.522;7.266;2022-12-18T08:51:20;4.13;;;3.20;;
1446;SDS011;717;51.522;7.266;2022-12-18T08:53:49;3.93;;;2.73;;
1446;SDS011;717;51.522;7.266;2022-12-18T08:56:18;3.70;;;2.43;;
1446;SDS011;717;51.522;7.266;2022-12-18T08:58:46;4.60;;;3.47;;
1446;SDS011;717;51.522;7.266;2022-12-18T09:01:18;4.07;;;2.93;;
1446;SDS011;717;51.522;7.266;2022-12-18T09:03:48;4.23;;;2.87;;
1446;SDS011;717;51.522;7.266;2022-12-18T09:06:17;4.97;;;3.03;;
1446;SDS011;717;51.522;7.266;2022-12-18T09:08:51;3.90;;;2.80;;
1446;SDS011;717;51.522;7.266;2022-12-18T09:11:20;4.23;;;2.67;;
1446;SDS011;717;51.522;7.266;2022-12-18T09:13:51;3.97;;;2.37;;
1446;SDS011;717;51.522;7.266;2022-12-18T09:16:19;4.03;;;2.40;;
1446;SDS011;717;51.522;7.266;2022-12-18T09:18:49;3.40;;;2.47;;
1446;SDS011;717;51.522;7.266;2022-12-18T09:21:21;3.80;;;2.50;;
1446;SDS011;717;51.522;7.266;2022-12-18T09:23:50;3.97;;;2.50;;
1446;SDS011;717;51.522;7.266;2022-12-18T09:26:19;5.20;;;2.87;;
1446;SDS011;717;51.522;7.266;2022-12-18T09:28:49;5.03;;;3.30;;
1446;SDS011;717;51.522;7.266;2022-12-18T09:31:18;5.93;;;3.23;;
1446;SDS011;717;51.522;7.266;2022-12-18T09:33:49;4.53;;;2.87;;
1446;SDS011;717;51.522;7.266;2022-12-18T09:36:19;5.07;;;3.17;;
1446;SDS011;717;51.522;7.266;2022-12-18T09:38:50;3.90;;;2.90;;
1446;SDS011;717;51.522;7.266;2022-12-18T09:41:27;4.00;;;3.00;;
1446;SDS011;717;51.522;7.266;2022-12-18T09:44:14;4.37;;;3.07;;
1446;SDS011;717;51.522;7.266;2022-12-18T09:46:52;4.60;;;2.73;;
1446;SDS011;717;51.522;7.266;2022-12-18T09:49:28;4.03;;;2.83;;
1446;SDS011;717;51.522;7.266;2022-12-18T09:52:02;4.03;;;2.77;;
1446;SDS011;717;51.522;7.266;2022-12-18T09:54:38;5.30;;;2.70;;
1446;SDS011;717;51.522;7.266;2022-12-18T09:57:13;6.23;;;2.97;;
1446;SDS011;717;51.522;7.266;2022-12-18T09:59:43;3.53;;;2.63;;
1446;SDS011;717;51.522;7.266;2022-12-18T10:02:18;5.17;;;3.40;;
1446;SDS011;717;51.522;7.266;2022-12-18T10:04:51;7.87;;;4.13;;
1446;SDS011;717;51.522;7.266;2022-12-18T10:07:34;6.37;;;4.30;;
1446;SDS011;717;51.522;7.266;2022-12-18T10:10:17;6.40;;;3.50;;
1446;SDS011;717;51.522;7.266;2022-12-18T10:12:55;4.30;;;2.90;;
1446;SDS011;717;51.522;7.266;2022-12-18T10:15:31;5.20;;;3.33;;
1446;SDS011;717;51.522;7.266;2022-12-18T10:18:12;3.73;;;3.13;;
1446;SDS011;717;51.522;7.266;2022-12-18T10:20:50;6.37;;;3.37;;
1446;SDS011;717;51.522;7.266;2022-12-18T10:23:24;3.07;;;2.30;;
1446;SDS011;717;51.522;7.266;2022-12-18T10:25:59;4.30;;;2.83;;
1446;SDS011;717;51.522;7.266;2022-12-18T10:28:33;3.50;;;2.40;;
1446;SDS011;717;51.522;7.266;2022-12-18T10:31:04;2.80;;;1.93;;
1446;SDS011;717;51.522;7.266;2022-12-18T10:33:33;4.00;;;1.97;;
1446;SDS011;717;51.522;7.266;2022-12-18T10:36:02;3.00;;;2.10;;
1446;SDS011;717;51.522;7.266;2022-12-18T10:38:34;3.27;;;1.83;;
1446;SDS011;717;51.522;7.266;2022-12-18T10:41:04;3.33;;;1.80;;
1446;SDS011;717;51.522;7.266;2022-12-18T10:43:36;3.60;;;2.33;;
1446;SDS011;717;51.522;7.266;2022-12-18T10:46:13;6.63;;;3.70;;
1446;SDS011;717;51.522;7.266;2022-12-18T10:48:51;7.17;;;3.90;;
1446;SDS011;717;51.522;7.266;2022-12-18T10:51:23;8.27;;;5.17;;
1446;SDS011;717;51.522;7.266;2022-12-18T10:53:57;10.90;;;6.23;;
1446;SDS011;717;51.522;7.266;2022-12-18T10:56:29;9.37;;;6.30;;
1446;SDS011;717;51.522;7.266;2022-12-18T10:59:02;10.50;;;6.90;;
1446;SDS011;717;51.522;7.266;2022-12-18T11:01:45;8.23;;;6.30;;
1446;SDS011;717;51.522;7.266;2022-12-18T11:04:20;7.50;;;6.13;;
1446;SDS011;717;51.522;7.266;2022-12-18T11:06:55;10.40;;;6.53;;
1446;SDS011;717;51.522;7.266;2022-12-18T11:09:28;11.00;;;7.53;;
1446;SDS011;717;51.522;7.266;2022-12-18T11:11:58;11.30;;;7.40;;
1446;SDS011;717;51.522;7.266;2022-12-18T11:14:29;7.97;;;5.57;;
1446;SDS011;717;51.522;7.266;2022-12-18T11:17:00;8.03;;;5.70;;
1446;SDS011;717;51.522;7.266;2022-12-18T11:19:31;10.23;;;6.13;;
1446;SDS011;717;51.522;7.266;2022-12-18T11:22:02;8.40;;;4.83;;
1446;SDS011;717;51.522;7.266;2022-12-18T11:24:52;7.20;;;4.60;;
1446;SDS011;717;51.522;7.266;2022-12-18T11:27:23;6.20;;;3.70;;
1446;SDS011;717;51.522;7.266;2022-12-18T11:29:53;7.40;;;3.67;;
1446;SDS011;717;51.522;7.266;2022-12-18T11:32:37;4.70;;;3.43;;
1446;SDS011;717;51.522;7.266;2022-12-18T11:35:11;5.83;;;3.90;;
1446;SDS011;717;51.522;7.266;2022-12-18T11:37:46;4.17;;;3.10;;
1446;SDS011;717;51.522;7.266;2022-12-18T11:40:22;6.67;;;3.97;;
1446;SDS011;717;51.522;7.266;2022-12-18T11:42:59;11.47;;;7.10;;
1446;SDS011;717;51.522;7.266;2022-12-18T11:45:34;10.87;;;7.10;;
1446;SDS011;717;51.522;7.266;2022-12-18T11:48:11;9.73;;;6.87;;
1446;SDS011;717;51.522;7.266;2022-12-18T11:50:46;10.47;;;7.60;;
1446;SDS011;717;51.522;7.266;2022-12-18T11:53:18;11.57;;;7.63;;
1446;SDS011;717;51.522;7.266;2022-12-18T11:56:02;9.60;;;7.37;;
1446;SDS011;717;51.522;7.266;2022-12-18T11:58:55;8.57;;;6.67;;
1446;SDS011;717;51.522;7.266;2022-12-18T12:01:35;10.00;;;7.00;;
1446;SDS011;717;51.522;7.266;2022-12-18T12:04:29;11.17;;;7.93;;
1446;SDS011;717;51.522;7.266;2022-12-18T12:07:21;10.07;;;7.23;;
1446;SDS011;717;51.522;7.266;2022-12-18T12:10:03;13.40;;;8.67;;
1446;SDS011;717;51.522;7.266;2022-12-18T12:12:51;11.30;;;8.97;;
1446;SDS011;717;51.522;7.266;2022-12-18T12:15:36;11.37;;;8.33;;
1446;SDS011;717;51.522;7.266;2022-12-18T12:18:14;10.97;;;7.47;;
1446;SDS011;717;51.522;7.266;2022-12-18T12:20:56;9.90;;;6.93;;
1446;SDS011;717;51.522;7.266;2022-12-18T12:23:35;9.87;;;6.53;;
1446;SDS011;717;51.522;7.266;2022-12-18T12:26:10;8.77;;;6.50;;
1446;SDS011;717;51.522;7.266;2022-12-18T12:28:56;8.50;;;6.10;;
1446;SDS011;717;51.522;7.266;2022-12-18T12:31:34;11.33;;;8.07;;
1446;SDS011;717;51.522;7.266;2022-12-18T12:34:16;8.63;;;6.63;;
1446;SDS011;717;51.522;7.266;2022-12-18T12:36:52;10.70;;;7.17;;
1446;SDS011;717;51.522;7.266;2022-12-18T12:39:31;10.07;;;6.90;;
1446;SDS011;717;51.522;7.266;2022-12-18T12:42:03;11.53;;;7.33;;
1446;SDS011;717;51.522;7.266;2022-12-18T12:44:50;11.37;;;6.97;;
1446;SDS011;717;51.522;7.266;2022-12-18T12:47:24;12.83;;;7.37;;
1446;SDS011;717;51.522;7.266;2022-12-18T12:49:57;10.90;;;6.80;;
1446;SDS011;717;51.522;7.266;2022-12-18T12:52:29;11.30;;;7.33;;
1446;SDS011;717;51.522;7.266;2022-12-18T12:55:00;10.43;;;7.67;;
1446;SDS011;717;51.522;7.266;2022-12-18T12:57:33;12.73;;;7.73;;
1446;SDS011;717;51.522;7.266;2022-12-18T13:00:08;10.87;;;8.37;;
1446;SDS011;717;51.522;7.266;2022-12-18T13:02:42;11.97;;;8.60;;
1446;SDS011;717;51.522;7.266;2022-12-18T13:05:17;12.03;;;9.10;;
1446;SDS011;717;51.522;7.266;2022-12-18T13:07:53;13.57;;;8.50;;
1446;SDS011;717;51.522;7.266;2022-12-18T13:10:27;12.60;;;8.47;;
1446;SDS011;717;51.522;7.266;2022-12-18T13:13:01;11.00;;;7.77;;
1446;SDS011;717;51.522;7.266;2022-12-18T13:15:41;11.37;;;7.97;;
1446;SDS011;717;51.522;7.266;2022-12-18T13:18:16;9.53;;;7.13;;
1446;SDS011;717;51.522;7.266;2022-12-18T13:20:47;8.77;;;7.00;;
1446;SDS011;717;51.522;7.266;2022-12-18T13:23:26;9.60;;;7.13;;
1446;SDS011;717;51.522;7.266;2022-12-18T13:25:57;9.93;;;6.73;;
1446;SDS011;717;51.522;7.266;2022-12-18T13:34:22;10.67;;;8.63;;
1446;SDS011;717;51.522;7.266;2022-12-18T13:36:52;13.90;;;9.97;;
1446;SDS011;717;51.522;7.266;2022-12-18T13:39:31;11.93;;;9.03;;
1446;SDS011;717;51.522;7.266;2022-12-18T13:48:16;16.67;;;11.20;;
1446;SDS011;717;51.522;7.266;2022-12-18T13:50:54;8.90;;;6.73;;
1446;SDS011;717;51.522;7.266;2022-12-18T13:53:28;7.00;;;5.43;;
1446;SDS011;717;51.522;7.266;2022-12-18T13:56:00;10.73;;;6.60;;
1446;SDS011;717;51.522;7.266;2022-12-18T13:58:29;9.37;;;5.90;;
1446;SDS011;717;51.522;7.266;2022-12-18T14:00:58;10.60;;;5.53;;
1446;SDS011;717;51.522;7.266;2022-12-18T14:03:29;9.47;;;5.10;;
1446;SDS011;717;51.522;7.266;2022-12-18T14:06:02;6.27;;;4.43;;
1446;SDS011;717;51.522;7.266;2022-12-18T14:08:36;6.50;;;4.00;;
1446;SDS011;717;51.522;7.266;2022-12-18T14:11:06;5.73;;;4.00;;
1446;SDS011;717;51.522;7.266;2022-12-18T14:13:45;6.13;;;4.20;;
1446;SDS011;717;51.522;7.266;2022-12-18T14:16:15;7.60;;;4.60;;
1446;SDS011;717;51.522;7.266;2022-12-18T14:18:45;6.03;;;4.30;;
1446;SDS011;717;51.522;7.266;2022-12-18T14:21:19;8.10;;;4.27;;
1446;SDS011;717;51.522;7.266;2022-12-18T14:24:02;6.03;;;4.23;;
1446;SDS011;717;51.522;7.266;2022-12-18T14:26:33;6.47;;;4.07;;
1446;SDS011;717;51.522;7.266;2022-12-18T14:29:17;8.20;;;4.50;;
1446;SDS011;717;51.522;7.266;2022-12-18T14:34:33;6.63;;;4.57;;
1446;SDS011;717;51.522;7.266;2022-12-18T14:37:05;8.40;;;5.50;;
1446;SDS011;717;51.522;7.266;2022-12-18T14:39:37;7.83;;;4.97;;
1446;SDS011;717;51.522;7.266;2022-12-18T14:42:09;6.97;;;4.10;;
1446;SDS011;717;51.522;7.266;2022-12-18T14:44:38;6.20;;;4.17;;
1446;SDS011;717;51.522;7.266;2022-12-18T14:47:12;6.17;;;4.10;;
1446;SDS011;717;51.522;7.266;2022-12-18T14:49:42;6.53;;;3.83;;
1446;SDS011;717;51.522;7.266;2022-12-18T14:52:20;6.43;;;3.97;;
1446;SDS011;717;51.522;7.266;2022-12-18T14:54:57;8.70;;;4.27;;
1446;SDS011;717;51.522;7.266;2022-12-18T14:57:25;6.37;;;4.17;;
1446;SDS011;717;51.522;7.266;2022-12-18T15:00:03;7.13;;;4.07;;
1446;SDS011;717;51.522;7.266;2022-12-18T15:02:34;7.10;;;4.47;;
1446;SDS011;717;51.522;7.266;2022-12-18T15:05:04;8.87;;;4.77;;
1446;SDS011;717;51.522;7.266;2022-12-18T15:07:48;7.40;;;4.53;;
1446;SDS011;717;51.522;7.266;2022-12-18T15:10:21;8.37;;;4.63;;
1446;SDS011;717;51.522;7.266;2022-12-18T15:13:06;11.00;;;5.07;;
1446;SDS011;717;51.522;7.266;2022-12-18T15:15:45;7.13;;;4.73;;
1446;SDS011;717;51.522;7.266;2022-12-18T15:18:16;9.77;;;4.90;;
1446;SDS011;717;51.522;7.266;2022-12-18T15:20:48;9.33;;;5.37;;
1446;SDS011;717;51.522;7.266;2022-12-18T15:23:21;8.07;;;5.30;;
1446;SDS011;717;51.522;7.266;2022-12-18T15:25:54;9.17;;;5.07;;
1446;SDS011;717;51.522;7.266;2022-12-18T15:28:24;10.07;;;5.47;;
1446;SDS011;717;51.522;7.266;2022-12-18T15:30:58;7.70;;;4.77;;
1446;SDS011;717;51.522;7.266;2022-12-18T15:33:31;8.57;;;5.53;;
1446;SDS011;717;51.522;7.266;2022-12-18T15:36:02;9.20;;;4.97;;
1446;SDS011;717;51.522;7.266;2022-12-18T15:38:34;8.53;;;5.23;;
1446;SDS011;717;51.522;7.266;2022-12-18T15:41:03;6.97;;;4.73;;
1446;SDS011;717;51.522;7.266;2022-12-18T15:43:32;8.40;;;5.57;;
1446;SDS011;717;51.522;7.266;2022-12-18T15:46:03;9.70;;;5.03;;
1446;SDS011;717;51.522;7.266;2022-12-18T15:48:39;9.17;;;5.40;;
1446;SDS011;717;51.522;7.266;2022-12-18T15:51:10;10.07;;;5.50;;
1446;SDS011;717;51.522;7.266;2022-12-18T15:53:45;7.43;;;5.10;;
1446;SDS011;717;51.522;7.266;2022-12-18T15:56:15;10.07;;;6.70;;
1446;SDS011;717;51.522;7.266;2022-12-18T15:58:56;8.70;;;5.50;;
1446;SDS011;717;51.522;7.266;2022-12-18T16:01:26;9.20;;;5.87;;
1446;SDS011;717;51.522;7.266;2022-12-18T16:03:56;10.17;;;5.70;;
1446;SDS011;717;51.522;7.266;2022-12-18T16:06:25;10.43;;;6.13;;
1446;SDS011;717;51.522;7.266;2022-12-18T16:08:56;9.37;;;6.40;;
1446;SDS011;717;51.522;7.266;2022-12-18T16:11:25;9.97;;;6.57;;
1446;SDS011;717;51.522;7.266;2022-12-18T16:14:06;10.80;;;6.40;;